Aérodrome :
LOGIN :

S'inscrire | Disclaimer

   EN    FR    IT 

 










Légende :    VFR   VFR Marginal   IFR   IFR Intensif   IFR Très Intensif
Visi : 
Plafond : 
>= 8 km
>= 3000ft
5 à 8 km
1000 à 3000 ft
1500m à 5 km
500 à 1000 ft
800 à 1500m
200 à 500 ft
< 800m
< 200 ft
Symboles :   Orages  Brouillard  Fortes neiges  Fortes précipitations  Vent > 20 kt
SIGMETs :   Divers  Orages  Givrage  Turbulence  Onde Orograph.  Cendres Volcan.







- Altitude de l'aérodrome : 235 ft
- Code IATA : BZG


EPBY - Bydgoszcz

DERNIER METAR :
  • 201900Z 26005KT 9000 NSC M01/M02 Q1011

METARs EXPIRÉS :
  • 201830Z 25006KT CAVOK M01/M01 Q1011
  • 201800Z 25008KT CAVOK M00/M01 Q1011
  • 201730Z 25009KT CAVOK 00/M01 Q1011
  • 201700Z 27008KT 9000 FEW038 00/M00 Q1011
  • 201630Z 27007KT CAVOK 00/M00 Q1010

TAF TAF EPBY
Valide du 20 à 18h jusqu'au 21 à 18h UTC


201730Z 2018/2118 28010KT 9999 BKN025
BECMG 2018/2021 VRB02KT
PROB40 2100/2108 1500 BR BKN003
BECMG 2115/2118 15010KT
Pas de NOTAMs connus pour ce terrain.



MET'MAP, la Météo Aéronautique d'un coup d'oeil ! - Copyright ORBIFLY Décembre 2007 - Disclaimer

ORBIFLY MET'MAP TEAM :

Programmation & Développement : Alexandra Zaïnal
Conception & Développement : Baudouin d'Aumeries
Co-Programmation & Développement : Marc-Olivier Méhu
Soutien technique & logistique : Manuel Goepfert

Contact : metmap@orbifly.com




SOURCES & CREDITS :

   NOAA